Home > Products > Valid Products > TAF

000
FTUS43 KEAX 250500 CCA
TAFSTJ
TAF COR
KSTJ 250522Z 2506/2606 00000KT 1/4SM FG VV002
     FM251300 VRB02KT 3SM BR SKC
     FM251600 VRB04KT P6SM SKC
     FM252000 10004KT P6SM SKC=



000
FTUS43 KEAX 250500
TAFMKC
TAF
KMKC 250520Z 2506/2606 VRB03KT P6SM SKC
     FM250900 VRB02KT 5SM BR SKC
     FM251400 VRB05KT P6SM SKC
     FM252100 11004KT P6SM SKC=



000
FTUS43 KEAX 250500
TAFMCI
TAF
KMCI 250520Z 2506/2606 VRB06KT P6SM SKC
     FM250900 VRB05KT 5SM BR SKC
     FM251500 VRB05KT P6SM SKC
     FM252100 11006KT P6SM SKC=



000
FTUS43 KEAX 250500
TAFSTJ
TAF
KSTJ 250520Z 2506/2606 VRB02KT 3SM BR SKC
      TEMPO 2509/2513 1SM BR
     FM251600 VRB04KT P6SM SKC
     FM252000 10004KT P6SM SKC=



000
FTUS43 KEAX 242300
TAFMKC
TAF
KMKC 242320Z 2500/2524 23005KT P6SM BKN200
     FM250900 VRB03KT 5SM BR SKC
     FM251400 VRB05KT P6SM SKC=



000
FTUS43 KEAX 242300
TAFMCI
TAF
KMCI 242320Z 2500/2524 23006KT P6SM BKN200
     FM250900 VRB05KT 4SM BR SKC
     FM251500 VRB05KT P6SM SKC=



000
FTUS43 KEAX 242300
TAFSTJ
TAF
KSTJ 242320Z 2500/2524 VRB04KT P6SM BKN200
     FM250700 VRB02KT 3SM BR SKC
      TEMPO 2509/2513 1SM BR
     FM251500 VRB04KT P6SM SKC=



000
FTUS43 KEAX 241700
TAFMCI
TAF
KMCI 241720Z 2418/2518 21010KT P6SM BKN200
     FM250600 27004KT 4SM BR FEW040
     FM251400 05005KT P6SM SKC=



000
FTUS43 KEAX 241700
TAFSTJ
TAF
KSTJ 241720Z 2418/2518 21010KT P6SM BKN200
     FM250600 00000KT 3SM BR FEW050
      TEMPO 2510/2513 1SM BR
     FM251500 05003KT P6SM SKC=



000
FTUS43 KEAX 241700
TAFMKC
TAF
KMKC 241720Z 2418/2518 21010KT P6SM BKN200
     FM250600 27004KT 5SM BR FEW040
     FM251400 05005KT P6SM SKC=



000
FTUS43 KEAX 241400 AAB
TAFSTJ
TAF AMD
KSTJ 241423Z 2414/2512 18004KT 3SM BR OVC006
     FM241600 20010KT P6SM BKN050
     FM241800 21011KT P6SM SCT200
     FM250800 33003KT 1/2SM FG SKC=



000
FTUS43 KEAX 241400 AAB
TAFSTJ
TAF AMD
KSTJ 241423Z 2414/2512 18004KT 3SM BR OVC006
     FM241600 20010KT P6SM BKN050
     FM241800 21011KT P6SM SCT200
     FM250800 33003KT 1/2SM FG SKC=



000
FTUS43 KEAX 241400 AAA
TAFMKC
TAF AMD
KMKC 241421Z 2414/2512 20006KT 3SM BR BKN025
     FM241500 21011KT P6SM BKN050
     FM241800 22013KT P6SM SCT200
     FM250800 33005KT 5SM BR SKC=



000
FTUS43 KEAX 241400 AAA
TAFMKC
TAF AMD
KMKC 241421Z 2414/2512 20006KT 3SM BR BKN025
     FM241500 21011KT P6SM BKN050
     FM241800 22013KT P6SM SCT200
     FM250800 33005KT 5SM BR SKC=



000
FTUS43 KEAX 241400 AAA
TAFMCI
TAF AMD
KMCI 241404Z 2414/2512 20006KT 4SM BR BKN025
     FM241500 21011KT P6SM BKN050
     FM241800 22013KT P6SM SCT200
     FM250800 33005KT 4SM BR SKC=



000
FTUS43 KEAX 241400 AAA
TAFMCI
TAF AMD
KMCI 241404Z 2414/2512 20006KT 4SM BR BKN025
     FM241500 21011KT P6SM BKN050
     FM241800 22013KT P6SM SCT200
     FM250800 33005KT 4SM BR SKC=



000
FTUS43 KEAX 241200 AAA
TAFSTJ
TAF AMD
KSTJ 241223Z 2412/2512 18004KT 3SM BR OVC006
      TEMPO 2412/2414 2SM BR VV003
     FM241500 20010KT P6SM BKN015
     FM241800 21011KT P6SM SCT200
     FM250800 33003KT 1/2SM FG SKC=



000
FTUS43 KEAX 241100
TAFSTJ
TAF
KSTJ 241120Z 2412/2512 18004KT 1SM BR OVC006
      TEMPO 2412/2414 1/4SM FG VV002
     FM241500 20010KT P6SM BKN015
     FM241800 21011KT P6SM SCT200
     FM250800 33003KT 1/2SM FG SKC=



000
FTUS43 KEAX 241100
TAFMCI
TAF
KMCI 241120Z 2412/2512 20006KT 2SM BR OVC005
      TEMPO 2412/2414 1SM BR OVC002
     FM241500 21011KT P6SM BKN015
     FM241800 22013KT P6SM SCT200
     FM250800 33005KT 4SM BR SKC=



000
FTUS43 KEAX 241100
TAFMKC
TAF
KMKC 241120Z 2412/2512 20006KT 3SM BR OVC006
     FM241500 21011KT P6SM BKN015
     FM241800 22013KT P6SM SCT200
     FM250800 33005KT 5SM BR SKC=



000
FTUS43 KEAX 240900 AAA
TAFMCI
TAF AMD
KMCI 240959Z 2410/2506 20006KT 2SM BR BKN005
      TEMPO 2410/2414 1SM BR BKN002
     FM241500 21011KT P6SM SCT025
     FM250100 21007KT P6SM SKC=



000
FTUS43 KEAX 240900 AAA
TAFMCI
TAF AMD
KMCI 240959Z 2410/2506 20006KT 2SM BR BKN005
      TEMPO 2410/2414 1SM BR BKN002
     FM241500 21011KT P6SM SCT025
     FM250100 21007KT P6SM SKC=



000
FTUS43 KEAX 240900 AAA
TAFMKC
TAF AMD
KMKC 240915Z 2409/2506 21004KT 3SM BR BKN150
      TEMPO 2410/2414 2SM BR BKN006
     FM241500 22010KT P6SM SCT025
     FM250000 22005KT P6SM SKC=



000
FTUS43 KEAX 240600 AAA
TAFSTJ
TAF AMD
KSTJ 240643Z 2407/2506 19004KT 1/2SM FG BKN007
     FM241600 21011KT P6SM SCT025
     FM242300 23005KT P6SM SKC
      TEMPO 2502/2506 1/2SM FG=



000
FTUS43 KEAX 240500
TAFMCI
TAF
KMCI 240520Z 2406/2506 20006KT 3SM BR BKN150
      TEMPO 2410/2414 1SM BR BKN007
     FM241500 21011KT P6SM SCT025
     FM250100 21007KT P6SM SKC=



000
FTUS43 KEAX 240500
TAFMKC
TAF
KMKC 240520Z 2406/2506 21004KT 3SM BR BKN150
      TEMPO 2410/2414 2SM BR BKN009
     FM241500 22010KT P6SM SCT025
     FM250000 22005KT P6SM SKC=



000
FTUS43 KEAX 240500
TAFSTJ
TAF
KSTJ 240520Z 2406/2506 19004KT 3SM BR BKN150
      TEMPO 2410/2414 1/2SM FG BKN007
     FM241600 21011KT P6SM SCT025
     FM242300 23005KT P6SM SKC
      TEMPO 2502/2506 1/2SM FG=



000
FTUS43 KEAX 240200 AAB
TAFSTJ
TAF AMD
KSTJ 240252Z 2403/2424 19003KT 1/4SM FG VV005
     FM241330 23010KT P6SM SCT035=



000
FTUS43 KEAX 240200 AAB
TAFSTJ
TAF AMD
KSTJ 240252Z 2403/2424 19003KT 1/4SM FG VV005
     FM241330 23010KT P6SM SCT035=



000
FTUS43 KEAX 240200 AAA
TAFMKC
TAF AMD
KMKC 240231Z 2403/2424 20004KT 6SM BR SCT020
     FM240500 21004KT 5SM BR BKN020
      TEMPO 2409/2412 3SM BR OVC010
     FM241430 22011KT P6SM FEW040=



000
FTUS43 KEAX 240200 AAA
TAFMCI
TAF AMD
KMCI 240231Z 2403/2424 21005KT 5SM BR SCT012
     FM240400 20004KT 4SM BR BKN011
      TEMPO 2409/2413 1SM BR OVC006
     FM241500 22011KT P6SM FEW040=



000
FTUS43 KEAX 240200 AAA
TAFSTJ
TAF AMD
KSTJ 240231Z 2403/2424 19004KT 5SM BR SKC
     FM240400 20003KT 3SM BR BKN017
     FM240800 20003KT 1/2SM FG VV003
     FM241330 23010KT P6SM SCT035=



000
FTUS43 KEAX 240200 AAA
TAFMKC
TAF AMD
KMKC 240231Z 2403/2424 20004KT 6SM BR SCT020
     FM240500 21004KT 5SM BR BKN020
      TEMPO 2409/2412 3SM BR OVC010
     FM241430 22011KT P6SM FEW040=



000
FTUS43 KEAX 240200 AAA
TAFMCI
TAF AMD
KMCI 240231Z 2403/2424 21005KT 5SM BR SCT012
     FM240400 20004KT 4SM BR BKN011
      TEMPO 2409/2413 1SM BR OVC006
     FM241500 22011KT P6SM FEW040=



000
FTUS43 KEAX 240200 AAA
TAFSTJ
TAF AMD
KSTJ 240231Z 2403/2424 19004KT 5SM BR SKC
     FM240400 20003KT 3SM BR BKN017
     FM240800 20003KT 1/2SM FG VV003
     FM241330 23010KT P6SM SCT035=



000
FTUS43 KEAX 232300
TAFMKC
TAF
KMKC 232326Z 2400/2424 19005KT P6SM BKN050
     FM240600 20004KT 5SM BR BKN020
      TEMPO 2409/2412 4SM BR OVC010
     FM241430 22011KT P6SM FEW040=



000
FTUS43 KEAX 232300
TAFSTJ
TAF
KSTJ 232326Z 2400/2424 19004KT P6SM SKC
     FM240600 20003KT 3SM BR BKN017
     FM240800 20003KT 1/2SM FG VV003
     FM241330 23010KT P6SM SCT035=



000
FTUS43 KEAX 232300
TAFMCI
TAF
KMCI 232326Z 2400/2424 21005KT P6SM SCT020
     FM240600 20004KT 4SM BR BKN020
      TEMPO 2409/2413 1SM BR OVC006
     FM241500 22011KT P6SM FEW040=



000
FTUS43 KEAX 231900 AAA
TAFMCI
TAF AMD
KMCI 231913Z 2319/2418 21008KT 4SM BR BKN008
     FM232100 20008KT P6SM SCT015 BKN040
     FM240000 20006KT P6SM BKN050
     FM240600 19005KT 4SM BR BKN025=



000
FTUS43 KEAX 231900 AAA
TAFMCI
TAF AMD
KMCI 231913Z 2319/2418 21008KT 4SM BR BKN008
     FM232100 20008KT P6SM SCT015 BKN040
     FM240000 20006KT P6SM BKN050
     FM240600 19005KT 4SM BR BKN025=



000
FTUS43 KEAX 231700
TAFSTJ
TAF
KSTJ 231720Z 2318/2418 21008KT P6SM BKN020
     FM240000 18003KT P6SM BKN050
     FM240600 17002KT 4SM BR BKN025=



000
FTUS43 KEAX 231700
TAFMCI
TAF
KMCI 231720Z 2318/2418 21008KT P6SM BKN020
     FM240000 20006KT P6SM BKN050
     FM240600 19005KT 4SM BR BKN025=



000
FTUS43 KEAX 231700
TAFMKC
TAF
KMKC 231720Z 2318/2418 20008KT P6SM BKN020
     FM240000 19006KT P6SM BKN050
     FM240600 19005KT 4SM BR BKN025=



000
FTUS43 KEAX 231500 AAB
TAFMCI
TAF AMD
KMCI 231503Z 2315/2412 22009KT P6SM BKN020
     FM232100 20008KT P6SM SCT040
     FM240600 20008KT 4SM BR BKN025=



000
FTUS43 KEAX 231400 AAA
TAFMCI
TAF AMD
KMCI 231433Z 2315/2412 22009KT P6SM SCT080
     FM231530 20008KT P6SM BKN025
     FM232100 20008KT P6SM SCT040
     FM240600 20008KT 4SM BR BKN025=



000
FTUS43 KEAX 231400 AAA
TAFMCI
TAF AMD
KMCI 231433Z 2315/2412 22009KT P6SM SCT080
     FM231530 20008KT P6SM BKN025
     FM232100 20008KT P6SM SCT040
     FM240600 20008KT 4SM BR BKN025=



000
FTUS43 KEAX 231300 AAB
TAFSTJ
TAF AMD
KSTJ 231348Z 2314/2412 20009KT P6SM BKN025
     FM231800 20009KT P6SM SCT040=



000
FTUS43 KEAX 231200 AAA
TAFSTJ
TAF AMD
KSTJ 231250Z 2313/2412 00000KT 3SM BR BKN150
      TEMPO 2313/2314 1/2SM FG BKN002
     FM231500 22009KT P6SM BKN025
     FM231800 20009KT P6SM SCT040=



000
FTUS43 KEAX 231100
TAFMCI
TAF
KMCI 231120Z 2312/2412 16004KT P6SM FEW021 BKN040 OVC060
      TEMPO 2312/2314 5SM -SHRA BR BKN025
     FM231400 22009KT P6SM BKN025
     FM231800 20008KT P6SM SCT040=



000
FTUS43 KEAX 231100
TAFMKC
TAF
KMKC 231120Z 2312/2412 18006KT P6SM SCT016 OVC100
      TEMPO 2312/2314 5SM -SHRA BR BKN020
     FM231400 21009KT P6SM BKN030
     FM231800 20008KT P6SM SCT040=



000
FTUS43 KEAX 231100
TAFSTJ
TAF
KSTJ 231120Z 2312/2412 00000KT P6SM FEW060 BKN110
     FM231300 22009KT P6SM BKN025
     FM231800 20009KT P6SM SCT040=



000
FTUS43 KEAX 231000 AAC
TAFSTJ
TAF AMD
KSTJ 231020Z 2310/2406 00000KT P6SM FEW060 BKN110
      TEMPO 2310/2312 6SM -RA BR OVC040
     FM231400 22009KT P6SM BKN035
     FM231800 20009KT P6SM SCT040=



000
FTUS43 KEAX 231000 AAB
TAFMKC
TAF AMD
KMKC 231018Z 2310/2406 19007KT P6SM SCT023 BKN040 OVC050
      TEMPO 2310/2312 5SM -RA OVC020
     FM231400 21009KT P6SM BKN035
     FM231800 20008KT P6SM SCT040=



000
FTUS43 KEAX 231000 AAB
TAFMKC
TAF AMD
KMKC 231018Z 2310/2406 19007KT P6SM SCT023 BKN040 OVC050
      TEMPO 2310/2312 5SM -RA OVC020
     FM231400 21009KT P6SM BKN035
     FM231800 20008KT P6SM SCT040=



000
FTUS43 KEAX 230900 AAB
TAFSTJ
TAF AMD
KSTJ 230908Z 2309/2406 18009KT P6SM -RA OVC090
      TEMPO 2309/2311 5SM -RA BR OVC040
     FM231400 22009KT P6SM BKN035
     FM231800 20009KT P6SM SCT040=



000
FTUS43 KEAX 230900 AAA
TAFMKC
TAF AMD
KMKC 230906Z 2309/2406 19007KT P6SM SCT023 BKN040 OVC050
      TEMPO 2309/2312 5SM -RA OVC030
     FM231400 21009KT P6SM BKN035
     FM231800 20008KT P6SM SCT040=



000
FTUS43 KEAX 230900 AAA
TAFMCI
TAF AMD
KMCI 230906Z 2309/2406 31004KT P6SM -RA FEW021 BKN040 OVC060
      TEMPO 2310/2312 3SM RA OVC030
     FM231400 22009KT P6SM BKN035
     FM231800 20008KT P6SM SCT040=



000
FTUS43 KEAX 230600 AAA
TAFSTJ
TAF AMD
KSTJ 230657Z 2307/2406 17010KT 6SM -SHRA OVC045
      TEMPO 2307/2311 4SM -RA OVC030
     FM231400 22009KT P6SM BKN035
     FM231800 20009KT P6SM SCT040=



000
FTUS43 KEAX 230500
TAFMCI
TAF
KMCI 230520Z 2306/2406 14008KT P6SM BKN150
     FM230700 18010KT 6SM -SHRA OVC045
      TEMPO 2308/2312 5SM -SHRA OVC030
     FM231400 22009KT P6SM BKN035
     FM231800 20008KT P6SM SCT040=



000
FTUS43 KEAX 230500
TAFSTJ
TAF
KSTJ 230520Z 2306/2406 16005KT P6SM SCT070
     FM230630 17010KT 6SM -SHRA OVC045
      TEMPO 2307/2311 5SM -SHRA OVC030
     FM231400 22009KT P6SM BKN035
     FM231800 20009KT P6SM SCT040=



000
FTUS43 KEAX 230500
TAFMKC
TAF
KMKC 230520Z 2306/2406 16008KT P6SM SCT250
     FM230700 17009KT 6SM -SHRA OVC045
      TEMPO 2308/2312 5SM -SHRA OVC030
     FM231400 21009KT P6SM BKN035
     FM231800 20008KT P6SM SCT040=



000
FTUS43 KEAX 222300
TAFMKC
TAF
KMKC 222325Z 2300/2324 16008KT P6SM SCT250
     FM230630 17009KT 5SM -SHRA OVC025
     FM231400 21009KT P6SM BKN035
     FM231800 24008KT P6SM SCT040=



000
FTUS43 KEAX 222300
TAFSTJ
TAF
KSTJ 222325Z 2300/2324 15010KT P6SM SCT250
     FM230600 17009KT 5SM -SHRA OVC025
     FM231400 22010KT P6SM BKN035
     FM231800 23009KT P6SM SCT040=



000
FTUS43 KEAX 222300
TAFMCI
TAF
KMCI 222325Z 2300/2324 14011KT P6SM FEW050 SCT250
     FM230630 17010KT 5SM -SHRA OVC025
     FM231400 22009KT P6SM BKN035
     FM231800 24009KT P6SM SCT040=



000
FTUS43 KEAX 221700
TAFMCI
TAF
KMCI 221720Z 2218/2318 14011KT P6SM SCT050
     FM230600 17009KT 5SM -SHRA OVC025
     FM231500 18009KT P6SM OVC035=



000
FTUS43 KEAX 221700
TAFMKC
TAF
KMKC 221720Z 2218/2318 14011KT P6SM SCT050
     FM230700 17009KT 5SM -SHRA OVC025
     FM231500 18009KT P6SM BKN035=



000
FTUS43 KEAX 221700
TAFMCI
TAF
KMCI 221720Z 2218/2318 14011KT P6SM SCT050
     FM230600 17009KT 5SM -SHRA OVC025
     FM231500 18009KT P6SM OVC035=



000
FTUS43 KEAX 221700
TAFSTJ
TAF
KSTJ 221720Z 2218/2318 14011KT P6SM SCT050
     FM230600 17009KT 5SM -SHRA OVC025
     FM231500 18009KT P6SM OVC035=



000
FTUS43 KEAX 221700
TAFMKC
TAF
KMKC 221720Z 2218/2318 14011KT P6SM SCT050
     FM230700 17009KT 5SM -SHRA OVC025
     FM231500 18009KT P6SM BKN035=



000
FTUS43 KEAX 221700
TAFSTJ
TAF
KSTJ 221720Z 2218/2318 14011KT P6SM SCT050
     FM230600 17009KT 5SM -SHRA OVC025
     FM231500 18009KT P6SM OVC035=



000
FTUS43 KEAX 221100
TAFSTJ
TAF
KSTJ 221133Z 2212/2312 13008KT P6SM VCSH OVC040
     FM221700 15007KT P6SM SCT030
     FM230400 17005KT 5SM -RA BKN035=



000
FTUS43 KEAX 221100
TAFMCI
TAF
KMCI 221133Z 2212/2312 13010KT P6SM VCSH OVC040
     FM221700 15010KT P6SM SCT030
     FM230500 17005KT 5SM -RA BKN035=



000
FTUS43 KEAX 221100
TAFMKC
TAF
KMKC 221133Z 2212/2312 11006KT P6SM VCSH OVC045
     FM221700 16010KT P6SM SCT030
     FM230600 17005KT 5SM -RA BKN035=



    US Dept of Commerce
    National Oceanic and Atmospheric Administration
    National Weather Service
    1325 East West Highway
    Silver Spring, MD 20910
    Page Author: NWS Internet Services Team
Disclaimer
Information Quality
Credits
Glossary
Privacy Policy
Freedom of Information Act (FOIA)
About Us
Career Opportunities